sensor_id;sensor_type;location;lat;lon;timestamp;pressure;altitude;pressure_sealevel;temperature;humidity
37710;BME280;60223;34.854;-92.408;2023-02-16T00:00:33;99902.11;;;23.86;35.33
37710;BME280;60223;34.854;-92.408;2023-02-16T00:03:00;99905.64;;;24.23;35.13
37710;BME280;60223;34.854;-92.408;2023-02-16T00:05:27;99907.73;;;23.79;35.70
37710;BME280;60223;34.854;-92.408;2023-02-16T00:07:52;99909.09;;;23.92;35.83
37710;BME280;60223;34.854;-92.408;2023-02-16T00:10:16;99909.52;;;23.65;35.58
37710;BME280;60223;34.854;-92.408;2023-02-16T00:12:43;99905.65;;;24.23;35.21
37710;BME280;60223;34.854;-92.408;2023-02-16T00:15:14;99895.04;;;23.70;35.56
37710;BME280;60223;34.854;-92.408;2023-02-16T00:36:59;99888.34;;;23.97;35.87
37710;BME280;60223;34.854;-92.408;2023-02-16T00:39:23;99885.86;;;23.96;35.57
37710;BME280;60223;34.854;-92.408;2023-02-16T00:41:49;99883.35;;;23.44;36.19
37710;BME280;60223;34.854;-92.408;2023-02-16T00:44:18;99879.83;;;23.11;36.39
37710;BME280;60223;34.854;-92.408;2023-02-16T00:46:40;99875.81;;;23.64;35.94
37710;BME280;60223;34.854;-92.408;2023-02-16T00:49:07;99876.31;;;23.71;35.93
37710;BME280;60223;34.854;-92.408;2023-02-16T00:51:31;99882.48;;;23.74;36.14
37710;BME280;60223;34.854;-92.408;2023-02-16T00:53:56;99885.29;;;23.08;36.65
37710;BME280;60223;34.854;-92.408;2023-02-16T00:56:22;99885.02;;;23.09;36.85
37710;BME280;60223;34.854;-92.408;2023-02-16T00:58:48;99881.80;;;23.28;36.29
37710;BME280;60223;34.854;-92.408;2023-02-16T01:01:12;99880.69;;;24.11;35.34
37710;BME280;60223;34.854;-92.408;2023-02-16T01:03:39;99883.06;;;24.27;35.57
37710;BME280;60223;34.854;-92.408;2023-02-16T01:06:04;99885.73;;;24.10;35.73
37710;BME280;60223;34.854;-92.408;2023-02-16T01:08:29;99891.84;;;23.92;35.93
37710;BME280;60223;34.854;-92.408;2023-02-16T01:10:55;99892.79;;;23.91;36.24
37710;BME280;60223;34.854;-92.408;2023-02-16T01:13:18;99884.06;;;24.06;35.80
37710;BME280;60223;34.854;-92.408;2023-02-16T01:15:47;99883.67;;;23.66;36.29
37710;BME280;60223;34.854;-92.408;2023-02-16T01:18:14;99883.73;;;23.32;36.78
37710;BME280;60223;34.854;-92.408;2023-02-16T01:20:38;99883.88;;;23.76;36.21
37710;BME280;60223;34.854;-92.408;2023-02-16T01:23:03;99882.65;;;23.35;36.70
37710;BME280;60223;34.854;-92.408;2023-02-16T01:25:28;99882.12;;;23.83;36.10
37710;BME280;60223;34.854;-92.408;2023-02-16T01:27:54;99885.23;;;23.79;36.45
37710;BME280;60223;34.854;-92.408;2023-02-16T01:32:45;99893.96;;;23.93;36.30
37710;BME280;60223;34.854;-92.408;2023-02-16T01:35:10;99898.43;;;23.60;36.44
37710;BME280;60223;34.854;-92.408;2023-02-16T01:37:34;99894.31;;;23.64;36.30
37710;BME280;60223;34.854;-92.408;2023-02-16T01:40:01;99903.01;;;22.98;37.15
37710;BME280;60223;34.854;-92.408;2023-02-16T01:42:33;99905.46;;;23.72;36.52
37710;BME280;60223;34.854;-92.408;2023-02-16T01:44:55;99907.03;;;22.96;37.17
37710;BME280;60223;34.854;-92.408;2023-02-16T01:47:28;99904.16;;;23.69;36.57
37710;BME280;60223;34.854;-92.408;2023-02-16T01:49:42;99904.80;;;23.43;36.53
37710;BME280;60223;34.854;-92.408;2023-02-16T01:52:15;99905.35;;;23.25;37.01
37710;BME280;60223;34.854;-92.408;2023-02-16T01:54:39;99906.87;;;23.52;36.39
37710;BME280;60223;34.854;-92.408;2023-02-16T01:57:04;99908.64;;;22.38;37.74
37710;BME280;60223;34.854;-92.408;2023-02-16T01:59:32;99908.78;;;23.95;36.20
37710;BME280;60223;34.854;-92.408;2023-02-16T02:01:55;99904.18;;;23.17;36.95
37710;BME280;60223;34.854;-92.408;2023-02-16T02:04:20;99903.78;;;23.38;36.72
37710;BME280;60223;34.854;-92.408;2023-02-16T02:06:41;99900.81;;;23.31;36.56
37710;BME280;60223;34.854;-92.408;2023-02-16T02:09:06;99901.40;;;23.28;36.90
37710;BME280;60223;34.854;-92.408;2023-02-16T02:11:35;99904.39;;;23.16;36.71
37710;BME280;60223;34.854;-92.408;2023-02-16T02:14:03;99902.46;;;23.28;36.95
37710;BME280;60223;34.854;-92.408;2023-02-16T02:16:22;99900.57;;;23.33;37.19
37710;BME280;60223;34.854;-92.408;2023-02-16T02:18:49;99899.31;;;23.02;37.22
37710;BME280;60223;34.854;-92.408;2023-02-16T02:21:29;99895.59;;;23.48;36.71
37710;BME280;60223;34.854;-92.408;2023-02-16T02:23:53;99896.61;;;23.27;36.86
37710;BME280;60223;34.854;-92.408;2023-02-16T02:28:33;99884.34;;;23.35;36.76
37710;BME280;60223;34.854;-92.408;2023-02-16T02:31:02;99885.27;;;23.12;37.47
37710;BME280;60223;34.854;-92.408;2023-02-16T02:33:32;99889.45;;;23.38;37.12
37710;BME280;60223;34.854;-92.408;2023-02-16T02:35:54;99893.50;;;23.39;37.13
37710;BME280;60223;34.854;-92.408;2023-02-16T02:38:19;99894.67;;;22.97;37.61
37710;BME280;60223;34.854;-92.408;2023-02-16T02:40:47;99895.11;;;23.02;37.26
37710;BME280;60223;34.854;-92.408;2023-02-16T02:43:12;99903.80;;;23.66;36.80
37710;BME280;60223;34.854;-92.408;2023-02-16T02:45:32;99902.45;;;23.43;36.79
37710;BME280;60223;34.854;-92.408;2023-02-16T02:47:56;99904.33;;;23.20;36.41
37710;BME280;60223;34.854;-92.408;2023-02-16T02:50:37;99901.32;;;23.30;35.93
37710;BME280;60223;34.854;-92.408;2023-02-16T02:52:44;99897.03;;;23.55;35.59
37710;BME280;60223;34.854;-92.408;2023-02-16T02:55:13;99899.41;;;23.65;35.39
37710;BME280;60223;34.854;-92.408;2023-02-16T02:57:39;99901.79;;;23.84;35.20
37710;BME280;60223;34.854;-92.408;2023-02-16T03:00:07;99903.01;;;23.92;35.03
37710;BME280;60223;34.854;-92.408;2023-02-16T03:02:30;99895.09;;;23.89;34.87
37710;BME280;60223;34.854;-92.408;2023-02-16T03:04:56;99893.84;;;23.69;34.76
37710;BME280;60223;34.854;-92.408;2023-02-16T03:07:22;99895.98;;;24.08;34.62
37710;BME280;60223;34.854;-92.408;2023-02-16T03:09:47;99894.68;;;23.85;34.64
37710;BME280;60223;34.854;-92.408;2023-02-16T03:12:11;99893.68;;;23.97;34.54
37710;BME280;60223;34.854;-92.408;2023-02-16T03:14:40;99894.11;;;24.64;34.08
37710;BME280;60223;34.854;-92.408;2023-02-16T03:17:06;99884.48;;;24.30;34.29
37710;BME280;60223;34.854;-92.408;2023-02-16T03:19:29;99888.03;;;24.40;34.24
37710;BME280;60223;34.854;-92.408;2023-02-16T03:21:52;99882.53;;;24.44;34.04
37710;BME280;60223;34.854;-92.408;2023-02-16T03:24:25;99879.02;;;24.59;33.98
37710;BME280;60223;34.854;-92.408;2023-02-16T03:26:44;99872.51;;;24.36;33.89
37710;BME280;60223;34.854;-92.408;2023-02-16T03:29:11;99869.66;;;24.37;33.89
37710;BME280;60223;34.854;-92.408;2023-02-16T03:31:37;99863.05;;;24.59;33.91
37710;BME280;60223;34.854;-92.408;2023-02-16T03:34:02;99861.69;;;24.51;34.03
37710;BME280;60223;34.854;-92.408;2023-02-16T03:36:27;99854.83;;;24.53;34.08
37710;BME280;60223;34.854;-92.408;2023-02-16T03:38:53;99852.31;;;24.25;34.12
37710;BME280;60223;34.854;-92.408;2023-02-16T03:41:18;99838.59;;;24.31;34.04
37710;BME280;60223;34.854;-92.408;2023-02-16T03:43:43;99824.13;;;24.24;34.13
37710;BME280;60223;34.854;-92.408;2023-02-16T03:46:08;99822.63;;;24.25;34.15
37710;BME280;60223;34.854;-92.408;2023-02-16T03:48:32;99818.18;;;24.24;34.15
37710;BME280;60223;34.854;-92.408;2023-02-16T03:51:00;99811.42;;;24.46;34.18
37710;BME280;60223;34.854;-92.408;2023-02-16T03:53:25;99811.16;;;24.54;34.10
37710;BME280;60223;34.854;-92.408;2023-02-16T03:55:51;99811.79;;;24.03;34.17
37710;BME280;60223;34.854;-92.408;2023-02-16T03:58:18;99802.17;;;24.26;34.22
37710;BME280;60223;34.854;-92.408;2023-02-16T04:00:43;99797.57;;;23.83;35.23
37710;BME280;60223;34.854;-92.408;2023-02-16T04:03:09;99794.18;;;24.49;34.12
37710;BME280;60223;34.854;-92.408;2023-02-16T04:05:33;99783.40;;;24.44;33.85
37710;BME280;60223;34.854;-92.408;2023-02-16T04:07:58;99772.78;;;24.93;33.82
37710;BME280;60223;34.854;-92.408;2023-02-16T04:10:25;99773.98;;;24.68;34.09
37710;BME280;60223;34.854;-92.408;2023-02-16T04:12:49;99757.18;;;24.64;34.19
37710;BME280;60223;34.854;-92.408;2023-02-16T04:15:19;99757.54;;;24.75;34.10
37710;BME280;60223;34.854;-92.408;2023-02-16T04:17:40;99751.08;;;24.23;34.19
37710;BME280;60223;34.854;-92.408;2023-02-16T04:20:08;99750.48;;;24.42;34.34
37710;BME280;60223;34.854;-92.408;2023-02-16T04:22:32;99745.26;;;24.54;34.22
37710;BME280;60223;34.854;-92.408;2023-02-16T04:24:57;99744.43;;;24.39;34.42
37710;BME280;60223;34.854;-92.408;2023-02-16T04:27:23;99743.66;;;24.26;34.49
37710;BME280;60223;34.854;-92.408;2023-02-16T04:29:48;99747.87;;;24.41;34.67
37710;BME280;60223;34.854;-92.408;2023-02-16T04:32:14;99758.63;;;25.06;34.97
37710;BME280;60223;34.854;-92.408;2023-02-16T04:34:39;99752.89;;;23.20;37.03
37710;BME280;60223;34.854;-92.408;2023-02-16T04:37:05;99756.23;;;24.69;35.68
37710;BME280;60223;34.854;-92.408;2023-02-16T04:39:30;99749.93;;;25.03;35.45
37710;BME280;60223;34.854;-92.408;2023-02-16T04:41:53;99753.07;;;24.94;35.81
37710;BME280;60223;34.854;-92.408;2023-02-16T04:44:18;99764.84;;;25.08;36.02
37710;BME280;60223;34.854;-92.408;2023-02-16T04:46:46;99766.35;;;24.70;36.04
37710;BME280;60223;34.854;-92.408;2023-02-16T04:49:11;99756.78;;;24.46;36.49
37710;BME280;60223;34.854;-92.408;2023-02-16T04:51:35;99757.09;;;24.60;36.32
37710;BME280;60223;34.854;-92.408;2023-02-16T04:54:02;99766.83;;;24.88;36.63
37710;BME280;60223;34.854;-92.408;2023-02-16T04:56:26;99765.86;;;24.32;36.79
37710;BME280;60223;34.854;-92.408;2023-02-16T04:58:50;99763.36;;;24.32;36.89
37710;BME280;60223;34.854;-92.408;2023-02-16T05:01:22;99757.99;;;24.30;36.95
37710;BME280;60223;34.854;-92.408;2023-02-16T05:03:42;99761.61;;;24.79;36.94
37710;BME280;60223;34.854;-92.408;2023-02-16T05:06:08;99766.04;;;24.40;36.76
37710;BME280;60223;34.854;-92.408;2023-02-16T05:08:35;99757.01;;;24.67;36.64
37710;BME280;60223;34.854;-92.408;2023-02-16T05:11:00;99761.17;;;24.46;36.62
37710;BME280;60223;34.854;-92.408;2023-02-16T05:13:25;99752.13;;;24.97;36.49
37710;BME280;60223;34.854;-92.408;2023-02-16T05:15:51;99741.30;;;24.68;36.44
37710;BME280;60223;34.854;-92.408;2023-02-16T05:18:16;99747.17;;;24.89;36.06
37710;BME280;60223;34.854;-92.408;2023-02-16T05:20:41;99749.50;;;24.58;36.08
37710;BME280;60223;34.854;-92.408;2023-02-16T05:23:07;99734.37;;;24.42;36.21
37710;BME280;60223;34.854;-92.408;2023-02-16T05:25:32;99730.77;;;24.70;36.06
37710;BME280;60223;34.854;-92.408;2023-02-16T05:27:58;99736.40;;;24.50;35.92
37710;BME280;60223;34.854;-92.408;2023-02-16T05:30:24;99738.57;;;25.03;35.79
37710;BME280;60223;34.854;-92.408;2023-02-16T05:32:49;99734.16;;;24.71;35.86
37710;BME280;60223;34.854;-92.408;2023-02-16T05:35:12;99731.97;;;25.27;35.37
37710;BME280;60223;34.854;-92.408;2023-02-16T05:37:40;99736.74;;;24.57;35.90
37710;BME280;60223;34.854;-92.408;2023-02-16T05:40:06;99738.91;;;24.78;35.60
37710;BME280;60223;34.854;-92.408;2023-02-16T05:42:30;99739.65;;;24.37;35.76
37710;BME280;60223;34.854;-92.408;2023-02-16T05:44:56;99737.76;;;25.16;34.97
37710;BME280;60223;34.854;-92.408;2023-02-16T05:47:18;99737.56;;;24.88;35.60
37710;BME280;60223;34.854;-92.408;2023-02-16T05:49:47;99723.13;;;24.95;35.50
37710;BME280;60223;34.854;-92.408;2023-02-16T05:52:12;99720.25;;;25.45;34.75
37710;BME280;60223;34.854;-92.408;2023-02-16T05:54:38;99729.33;;;24.34;35.53
37710;BME280;60223;34.854;-92.408;2023-02-16T05:57:03;99723.42;;;24.72;35.29
37710;BME280;60223;34.854;-92.408;2023-02-16T05:59:26;99730.16;;;24.82;35.42
37710;BME280;60223;34.854;-92.408;2023-02-16T06:01:52;99729.15;;;24.55;35.10
37710;BME280;60223;34.854;-92.408;2023-02-16T06:04:19;99730.13;;;25.25;34.78
37710;BME280;60223;34.854;-92.408;2023-02-16T06:06:44;99730.85;;;24.47;35.16
37710;BME280;60223;34.854;-92.408;2023-02-16T06:09:11;99722.06;;;24.57;35.26
37710;BME280;60223;34.854;-92.408;2023-02-16T06:11:36;99718.06;;;24.33;35.24
37710;BME280;60223;34.854;-92.408;2023-02-16T06:14:02;99709.92;;;25.17;34.74
37710;BME280;60223;34.854;-92.408;2023-02-16T06:16:28;99704.32;;;24.50;35.53
37710;BME280;60223;34.854;-92.408;2023-02-16T06:18:52;99693.38;;;24.02;35.47
37710;BME280;60223;34.854;-92.408;2023-02-16T06:21:18;99690.90;;;23.89;35.65
37710;BME280;60223;34.854;-92.408;2023-02-16T06:23:44;99691.03;;;24.02;35.74
37710;BME280;60223;34.854;-92.408;2023-02-16T06:26:09;99682.71;;;24.48;35.45
37710;BME280;60223;34.854;-92.408;2023-02-16T06:28:35;99683.07;;;24.23;35.69
37710;BME280;60223;34.854;-92.408;2023-02-16T06:31:01;99693.20;;;24.35;35.49
37710;BME280;60223;34.854;-92.408;2023-02-16T06:33:26;99694.48;;;24.10;35.44
37710;BME280;60223;34.854;-92.408;2023-02-16T06:35:49;99701.29;;;24.32;35.45
37710;BME280;60223;34.854;-92.408;2023-02-16T06:38:16;99703.65;;;24.00;35.49
37710;BME280;60223;34.854;-92.408;2023-02-16T06:40:43;99701.09;;;23.77;35.42
37710;BME280;60223;34.854;-92.408;2023-02-16T06:43:09;99691.74;;;24.37;35.22
37710;BME280;60223;34.854;-92.408;2023-02-16T06:45:35;99700.24;;;24.22;35.11
37710;BME280;60223;34.854;-92.408;2023-02-16T06:48:00;99693.19;;;24.35;35.24
37710;BME280;60223;34.854;-92.408;2023-02-16T06:50:25;99690.03;;;24.01;35.34
37710;BME280;60223;34.854;-92.408;2023-02-16T06:52:51;99696.61;;;24.31;35.26
37710;BME280;60223;34.854;-92.408;2023-02-16T06:55:17;99686.57;;;23.97;35.40
37710;BME280;60223;34.854;-92.408;2023-02-16T06:57:42;99698.88;;;23.71;35.77
37710;BME280;60223;34.854;-92.408;2023-02-16T07:00:07;99697.36;;;24.00;35.76
37710;BME280;60223;34.854;-92.408;2023-02-16T07:02:34;99701.85;;;23.95;35.86
37710;BME280;60223;34.854;-92.408;2023-02-16T07:04:59;99691.83;;;23.90;35.66
37710;BME280;60223;34.854;-92.408;2023-02-16T07:07:25;99695.14;;;24.06;35.77
37710;BME280;60223;34.854;-92.408;2023-02-16T07:09:50;99697.24;;;24.14;35.70
37710;BME280;60223;34.854;-92.408;2023-02-16T07:12:16;99698.95;;;23.82;36.08
37710;BME280;60223;34.854;-92.408;2023-02-16T07:14:42;99692.35;;;23.95;35.91
37710;BME280;60223;34.854;-92.408;2023-02-16T07:17:04;99694.06;;;23.86;36.01
37710;BME280;60223;34.854;-92.408;2023-02-16T07:19:32;99688.12;;;24.01;35.81
37710;BME280;60223;34.854;-92.408;2023-02-16T07:21:58;99676.68;;;23.95;35.85
37710;BME280;60223;34.854;-92.408;2023-02-16T07:24:23;99681.86;;;23.96;36.14
37710;BME280;60223;34.854;-92.408;2023-02-16T07:26:49;99680.51;;;23.72;35.83
37710;BME280;60223;34.854;-92.408;2023-02-16T07:29:15;99684.75;;;23.87;35.87
37710;BME280;60223;34.854;-92.408;2023-02-16T07:31:41;99685.12;;;24.06;35.59
37710;BME280;60223;34.854;-92.408;2023-02-16T07:34:06;99687.43;;;23.98;35.68
37710;BME280;60223;34.854;-92.408;2023-02-16T07:36:31;99696.72;;;24.04;35.61
37710;BME280;60223;34.854;-92.408;2023-02-16T07:38:57;99696.26;;;24.00;35.60
37710;BME280;60223;34.854;-92.408;2023-02-16T07:41:23;99696.05;;;23.87;35.77
37710;BME280;60223;34.854;-92.408;2023-02-16T07:43:46;99695.90;;;23.70;35.93
37710;BME280;60223;34.854;-92.408;2023-02-16T07:46:14;99697.40;;;23.85;35.68
37710;BME280;60223;34.854;-92.408;2023-02-16T07:48:40;99704.92;;;23.73;35.89
37710;BME280;60223;34.854;-92.408;2023-02-16T07:51:05;99711.53;;;23.93;35.54
37710;BME280;60223;34.854;-92.408;2023-02-16T07:53:31;99719.44;;;23.98;35.42
37710;BME280;60223;34.854;-92.408;2023-02-16T07:55:56;99725.33;;;23.72;35.76
37710;BME280;60223;34.854;-92.408;2023-02-16T07:58:21;99733.70;;;23.91;35.53
37710;BME280;60223;34.854;-92.408;2023-02-16T08:00:44;99734.13;;;24.01;35.66
37710;BME280;60223;34.854;-92.408;2023-02-16T08:03:12;99737.46;;;23.77;35.62
37710;BME280;60223;34.854;-92.408;2023-02-16T08:05:37;99738.19;;;23.73;35.68
37710;BME280;60223;34.854;-92.408;2023-02-16T08:08:03;99726.32;;;23.80;35.57
37710;BME280;60223;34.854;-92.408;2023-02-16T08:10:29;99717.92;;;23.76;35.55
37710;BME280;60223;34.854;-92.408;2023-02-16T08:12:54;99716.16;;;23.86;35.40
37710;BME280;60223;34.854;-92.408;2023-02-16T08:15:20;99717.21;;;23.86;35.35
37710;BME280;60223;34.854;-92.408;2023-02-16T08:17:43;99718.84;;;23.81;35.41
37710;BME280;60223;34.854;-92.408;2023-02-16T08:20:12;99725.58;;;24.08;35.36
37710;BME280;60223;34.854;-92.408;2023-02-16T08:22:35;99724.62;;;23.87;35.26
37710;BME280;60223;34.854;-92.408;2023-02-16T08:25:02;99708.06;;;23.63;35.59
37710;BME280;60223;34.854;-92.408;2023-02-16T08:27:28;99713.90;;;23.90;35.22
37710;BME280;60223;34.854;-92.408;2023-02-16T08:29:54;99706.50;;;23.75;35.40
37710;BME280;60223;34.854;-92.408;2023-02-16T08:32:17;99703.59;;;23.70;35.47
37710;BME280;60223;34.854;-92.408;2023-02-16T08:34:44;99698.35;;;23.69;35.41
37710;BME280;60223;34.854;-92.408;2023-02-16T08:37:10;99686.23;;;23.57;35.52
37710;BME280;60223;34.854;-92.408;2023-02-16T08:39:36;99687.65;;;23.59;35.53
37710;BME280;60223;34.854;-92.408;2023-02-16T08:42:00;99677.84;;;23.71;35.33
37710;BME280;60223;34.854;-92.408;2023-02-16T08:44:27;99680.94;;;23.74;35.28
37710;BME280;60223;34.854;-92.408;2023-02-16T08:46:53;99683.12;;;23.44;35.67
37710;BME280;60223;34.854;-92.408;2023-02-16T08:49:19;99681.95;;;23.65;35.35
37710;BME280;60223;34.854;-92.408;2023-02-16T08:51:46;99673.68;;;23.62;35.34
37710;BME280;60223;34.854;-92.408;2023-02-16T08:54:07;99669.59;;;23.64;35.29
37710;BME280;60223;34.854;-92.408;2023-02-16T08:56:34;99664.64;;;23.72;35.47
37710;BME280;60223;34.854;-92.408;2023-02-16T08:59:00;99655.30;;;23.48;35.45
37710;BME280;60223;34.854;-92.408;2023-02-16T09:01:26;99639.73;;;23.60;35.59
37710;BME280;60223;34.854;-92.408;2023-02-16T09:03:51;99639.67;;;23.48;35.43
37710;BME280;60223;34.854;-92.408;2023-02-16T09:06:17;99629.26;;;23.61;35.56
37710;BME280;60223;34.854;-92.408;2023-02-16T09:08:42;99634.96;;;23.47;35.44
37710;BME280;60223;34.854;-92.408;2023-02-16T09:11:07;99642.87;;;23.42;35.46
37710;BME280;60223;34.854;-92.408;2023-02-16T09:13:33;99642.07;;;23.59;35.24
37710;BME280;60223;34.854;-92.408;2023-02-16T09:16:02;99645.23;;;24.06;35.25
37710;BME280;60223;34.854;-92.408;2023-02-16T09:18:21;99641.04;;;23.48;35.35
37710;BME280;60223;34.854;-92.408;2023-02-16T09:20:47;99636.41;;;23.40;35.46
37710;BME280;60223;34.854;-92.408;2023-02-16T09:23:15;99621.71;;;23.65;35.12
37710;BME280;60223;34.854;-92.408;2023-02-16T09:25:44;99618.33;;;23.71;35.35
37710;BME280;60223;34.854;-92.408;2023-02-16T09:28:08;99609.57;;;23.78;35.24
37710;BME280;60223;34.854;-92.408;2023-02-16T09:30:32;99626.22;;;23.53;35.23
37710;BME280;60223;34.854;-92.408;2023-02-16T09:32:57;99637.26;;;23.84;35.17
37710;BME280;60223;34.854;-92.408;2023-02-16T09:35:23;99643.53;;;23.60;35.10
37710;BME280;60223;34.854;-92.408;2023-02-16T09:37:46;99647.39;;;23.69;35.00
37710;BME280;60223;34.854;-92.408;2023-02-16T09:40:14;99657.81;;;23.79;34.85
37710;BME280;60223;34.854;-92.408;2023-02-16T09:42:49;99662.31;;;23.49;35.23
37710;BME280;60223;34.854;-92.408;2023-02-16T09:45:10;99654.21;;;23.73;35.21
37710;BME280;60223;34.854;-92.408;2023-02-16T09:47:32;99647.68;;;23.76;35.17
37710;BME280;60223;34.854;-92.408;2023-02-16T09:49:56;99654.97;;;23.56;35.04
37710;BME280;60223;34.854;-92.408;2023-02-16T09:52:24;99668.00;;;23.82;35.03
37710;BME280;60223;34.854;-92.408;2023-02-16T09:54:50;99657.17;;;23.48;35.19
37710;BME280;60223;34.854;-92.408;2023-02-16T09:57:20;99641.81;;;23.77;35.08
37710;BME280;60223;34.854;-92.408;2023-02-16T09:59:46;99639.94;;;23.67;34.90
37710;BME280;60223;34.854;-92.408;2023-02-16T10:04:38;99655.29;;;23.77;35.05
37710;BME280;60223;34.854;-92.408;2023-02-16T10:06:59;99642.19;;;23.62;34.98
37710;BME280;60223;34.854;-92.408;2023-02-16T10:09:20;99630.52;;;23.59;34.97
37710;BME280;60223;34.854;-92.408;2023-02-16T10:11:47;99624.98;;;23.77;35.04
37710;BME280;60223;34.854;-92.408;2023-02-16T10:14:13;99624.58;;;23.60;34.92
37710;BME280;60223;34.854;-92.408;2023-02-16T10:16:38;99624.05;;;23.75;34.73
37710;BME280;60223;34.854;-92.408;2023-02-16T10:19:01;99624.99;;;23.44;35.12
37710;BME280;60223;34.854;-92.408;2023-02-16T10:21:26;99618.53;;;23.69;35.09
37710;BME280;60223;34.854;-92.408;2023-02-16T10:23:55;99593.59;;;23.41;35.09
37710;BME280;60223;34.854;-92.408;2023-02-16T10:26:21;99594.45;;;23.79;34.90
37710;BME280;60223;34.854;-92.408;2023-02-16T10:28:47;99589.89;;;23.51;34.96
37710;BME280;60223;34.854;-92.408;2023-02-16T10:31:14;99595.58;;;23.51;34.93
37710;BME280;60223;34.854;-92.408;2023-02-16T10:33:39;99609.95;;;23.44;35.01
37710;BME280;60223;34.854;-92.408;2023-02-16T10:36:02;99641.39;;;23.44;34.97
37710;BME280;60223;34.854;-92.408;2023-02-16T10:38:29;99634.34;;;23.73;34.92
37710;BME280;60223;34.854;-92.408;2023-02-16T10:40:56;99651.53;;;23.51;34.87
37710;BME280;60223;34.854;-92.408;2023-02-16T10:43:22;99649.84;;;23.49;34.87
37710;BME280;60223;34.854;-92.408;2023-02-16T10:45:47;99661.87;;;23.63;35.00
37710;BME280;60223;34.854;-92.408;2023-02-16T10:48:08;99676.01;;;23.59;34.74
37710;BME280;60223;34.854;-92.408;2023-02-16T10:50:36;99672.21;;;23.22;35.21
37710;BME280;60223;34.854;-92.408;2023-02-16T10:52:59;99654.84;;;23.71;34.87
37710;BME280;60223;34.854;-92.408;2023-02-16T10:55:23;99643.69;;;23.50;34.82
37710;BME280;60223;34.854;-92.408;2023-02-16T10:57:54;99632.28;;;23.68;35.25
37710;BME280;60223;34.854;-92.408;2023-02-16T11:00:17;99623.72;;;23.65;34.94
37710;BME280;60223;34.854;-92.408;2023-02-16T11:02:41;99630.70;;;23.30;35.07
37710;BME280;60223;34.854;-92.408;2023-02-16T11:07:30;99625.70;;;23.70;34.89
37710;BME280;60223;34.854;-92.408;2023-02-16T11:09:55;99606.68;;;23.72;34.83
37710;BME280;60223;34.854;-92.408;2023-02-16T11:12:28;99601.07;;;23.64;34.97
37710;BME280;60223;34.854;-92.408;2023-02-16T11:14:52;99613.54;;;23.70;34.85
37710;BME280;60223;34.854;-92.408;2023-02-16T11:17:13;99611.85;;;23.94;34.58
37710;BME280;60223;34.854;-92.408;2023-02-16T11:19:38;99593.09;;;23.72;34.79
37710;BME280;60223;34.854;-92.408;2023-02-16T11:22:03;99606.93;;;23.54;35.01
37710;BME280;60223;34.854;-92.408;2023-02-16T11:24:31;99618.61;;;23.24;35.09
37710;BME280;60223;34.854;-92.408;2023-02-16T11:27:00;99657.48;;;23.39;34.88
37710;BME280;60223;34.854;-92.408;2023-02-16T11:29:21;99672.24;;;23.25;35.01
37710;BME280;60223;34.854;-92.408;2023-02-16T11:31:45;99672.81;;;23.44;35.14
37710;BME280;60223;34.854;-92.408;2023-02-16T11:34:21;99699.21;;;23.72;35.08
37710;BME280;60223;34.854;-92.408;2023-02-16T11:36:40;99725.35;;;23.19;35.18
37710;BME280;60223;34.854;-92.408;2023-02-16T11:39:04;99754.31;;;23.47;35.14
37710;BME280;60223;34.854;-92.408;2023-02-16T11:41:28;99740.87;;;23.62;35.26
37710;BME280;60223;34.854;-92.408;2023-02-16T11:43:50;99697.77;;;23.33;35.31
37710;BME280;60223;34.854;-92.408;2023-02-16T11:46:20;99700.95;;;22.98;35.46
37710;BME280;60223;34.854;-92.408;2023-02-16T11:48:44;99708.15;;;23.07;35.28
37710;BME280;60223;34.854;-92.408;2023-02-16T11:51:11;99729.56;;;23.43;35.11
37710;BME280;60223;34.854;-92.408;2023-02-16T11:53:36;99733.28;;;23.42;35.09
37710;BME280;60223;34.854;-92.408;2023-02-16T11:56:12;99727.68;;;23.12;35.18
37710;BME280;60223;34.854;-92.408;2023-02-16T11:58:25;99735.68;;;23.58;34.83
37710;BME280;60223;34.854;-92.408;2023-02-16T12:01:01;99730.95;;;23.78;34.90
37710;BME280;60223;34.854;-92.408;2023-02-16T12:03:24;99750.83;;;23.36;34.86
37710;BME280;60223;34.854;-92.408;2023-02-16T12:05:53;99782.33;;;23.69;34.41
37710;BME280;60223;34.854;-92.408;2023-02-16T12:08:47;99726.10;;;24.51;33.77
37710;BME280;60223;34.854;-92.408;2023-02-16T12:10:35;99749.02;;;24.94;33.36
37710;BME280;60223;34.854;-92.408;2023-02-16T12:13:08;99758.98;;;25.33;33.17
37710;BME280;60223;34.854;-92.408;2023-02-16T12:15:29;99745.26;;;25.13;33.20
37710;BME280;60223;34.854;-92.408;2023-02-16T12:18:01;99761.37;;;24.54;33.87
37710;BME280;60223;34.854;-92.408;2023-02-16T12:20:28;99779.62;;;24.51;34.10
37710;BME280;60223;34.854;-92.408;2023-02-16T12:22:44;99811.57;;;24.51;34.23
37710;BME280;60223;34.854;-92.408;2023-02-16T12:27:36;99807.86;;;24.47;34.34
37710;BME280;60223;34.854;-92.408;2023-02-16T12:30:02;99806.31;;;24.48;34.38
37710;BME280;60223;34.854;-92.408;2023-02-16T12:32:36;99834.15;;;25.16;33.66
37710;BME280;60223;34.854;-92.408;2023-02-16T12:34:58;99849.00;;;25.33;33.26
37710;BME280;60223;34.854;-92.408;2023-02-16T12:37:20;99874.21;;;25.16;33.88
37710;BME280;60223;34.854;-92.408;2023-02-16T12:39:41;99876.68;;;24.39;34.20
37710;BME280;60223;34.854;-92.408;2023-02-16T12:42:16;99858.62;;;24.82;34.31
37710;BME280;60223;34.854;-92.408;2023-02-16T12:44:36;99866.48;;;24.74;34.46
37710;BME280;60223;34.854;-92.408;2023-02-16T12:47:00;99885.57;;;24.46;34.52
37710;BME280;60223;34.854;-92.408;2023-02-16T12:49:25;99892.55;;;24.68;34.53
37710;BME280;60223;34.854;-92.408;2023-02-16T12:51:52;99895.55;;;24.57;34.69
37710;BME280;60223;34.854;-92.408;2023-02-16T12:54:21;99909.27;;;24.17;34.60
37710;BME280;60223;34.854;-92.408;2023-02-16T12:56:42;99925.45;;;24.35;34.66
37710;BME280;60223;34.854;-92.408;2023-02-16T12:59:14;99933.50;;;24.46;34.46
37710;BME280;60223;34.854;-92.408;2023-02-16T13:01:32;99946.35;;;25.04;34.08